Time;durP1;ratioP1;P1;durP2;ratioP2;P2;SDS_P1;SDS_P2;PMS_P1;PMS_P2;Temp;Humidity;BMP_temperature;BMP_pressure;BME280_temperature;BME280_humidity;BME280_pressure;Samples;Min_cycle;Max_cycle;Signal;HPM_P1;HPM_P2
2022/10/27 00:01:30;;;;;;;9.43;4.60;;;22.20;68.90;;;;;;5052888;28;20032;-73
2022/10/27 00:03:56;;;;;;;11.10;5.13;;;22.20;68.90;;;;;;5031719;28;20024;-73
2022/10/27 00:06:22;;;;;;;12.18;5.05;;;22.20;69.10;;;;;;5045838;28;20036;-73
2022/10/27 00:08:50;;;;;;;10.80;4.85;;;22.20;69.30;;;;;;5063237;28;20124;-72
2022/10/27 00:11:16;;;;;;;11.30;4.75;;;22.20;69.70;;;;;;5070954;28;20036;-75
2022/10/27 00:13:42;;;;;;;44.80;31.63;;;22.30;69.90;;;;;;5048481;28;20024;-76
2022/10/27 00:16:14;;;;;;;37.88;29.52;;;22.20;67.60;;;;;;5070097;28;20024;-76
2022/10/27 00:18:43;;;;;;;28.98;18.63;;;22.00;63.80;;;;;;5058263;28;20024;-75
2022/10/27 00:21:13;;;;;;;20.85;14.02;;;21.90;62.70;;;;;;5052612;28;20222;-72
2022/10/27 00:23:39;;;;;;;;;;;21.80;63.00;;;;;;5069031;28;20106;-72
2022/10/27 00:26:08;;;;;;;24.98;14.77;;;21.80;62.90;;;;;;5068641;28;19912;-72
2022/10/27 00:28:34;;;;;;;20.53;14.97;;;21.90;63.80;;;;;;5071226;28;20435;-72
2022/10/27 00:31:03;;;;;;;24.50;14.40;;;21.90;63.20;;;;;;5070430;28;20383;-72
2022/10/27 00:33:29;;;;;;;22.67;14.23;;;22.00;63.40;;;;;;5052795;28;20040;-72
2022/10/27 00:35:55;;;;;;;24.55;14.02;;;22.00;63.70;;;;;;5070879;28;20040;-72
2022/10/27 00:38:22;;;;;;;22.23;13.93;;;22.00;63.90;;;;;;5071743;28;20024;-72
2022/10/27 00:40:48;;;;;;;20.58;13.60;;;22.00;64.30;;;;;;5054240;28;20028;-72
2022/10/27 00:43:24;;;;;;;27.80;14.18;;;22.00;64.50;;;;;;5048898;28;20119;-72
2022/10/27 00:45:49;;;;;;;20.70;14.25;;;22.00;64.80;;;;;;5071054;28;20566;-72
2022/10/27 00:48:15;;;;;;;19.45;13.32;;;22.00;65.10;;;;;;5071369;28;20100;-72
2022/10/27 00:50:41;;;;;;;23.27;14.57;;;22.00;65.20;;;;;;5068651;28;20028;-72
2022/10/27 00:53:08;;;;;;;19.98;14.15;;;22.00;65.50;;;;;;5071443;28;20020;-72
2022/10/27 00:55:38;;;;;;;20.13;13.13;;;22.00;65.40;;;;;;5051744;28;20494;-72
2022/10/27 00:58:06;;;;;;;20.48;13.77;;;22.10;65.60;;;;;;5052453;28;20437;-72
2022/10/27 01:00:35;;;;;;;19.35;13.30;;;22.10;65.60;;;;;;5031159;28;20035;-72
2022/10/27 01:03:02;;;;;;;23.35;13.73;;;22.10;65.80;;;;;;5071098;28;20083;-71
2022/10/27 01:05:28;;;;;;;20.08;13.35;;;22.10;65.80;;;;;;5052905;28;20016;-72
2022/10/27 01:07:58;;;;;;;19.92;13.63;;;22.10;65.90;;;;;;5160756;22;20298;-74
2022/10/27 01:10:25;;;;;;;19.70;12.75;;;22.10;66.10;;;;;;4999767;28;20087;-74
2022/10/27 01:12:52;;;;;;;19.55;12.77;;;22.10;66.10;;;;;;4998441;28;20033;-74
2022/10/27 01:15:17;;;;;;;18.67;12.60;;;22.10;66.20;;;;;;5001139;28;20460;-74
2022/10/27 01:17:43;;;;;;;19.25;12.55;;;22.10;66.20;;;;;;4998116;28;20061;-74
2022/10/27 01:20:09;;;;;;;17.42;12.02;;;22.10;66.30;;;;;;4996914;28;20042;-75
2022/10/27 01:22:47;;;;;;;17.42;11.55;;;22.10;66.30;;;;;;4993626;28;20036;-75
2022/10/27 01:25:34;;;;;;;18.42;12.00;;;22.10;66.40;;;;;;5008020;28;20040;-75
2022/10/27 01:28:19;;;;;;;16.80;11.63;;;22.10;66.40;;;;;;4993304;28;20040;-75
2022/10/27 01:31:10;;;;;;;18.70;12.18;;;22.10;66.50;;;;;;4988779;28;20025;-74
2022/10/27 01:34:06;;;;;;;19.75;12.60;;;22.10;66.50;;;;;;4989131;28;20034;-74
2022/10/27 01:36:57;;;;;;;18.67;11.65;;;22.10;66.60;;;;;;4989555;28;20068;-73
2022/10/27 01:39:29;;;;;;;17.35;11.52;;;22.10;66.60;;;;;;4989225;28;20472;-74
2022/10/27 01:42:15;;;;;;;16.67;11.65;;;22.10;66.70;;;;;;4989367;28;20496;-74
2022/10/27 01:44:45;;;;;;;17.67;11.45;;;22.10;66.70;;;;;;4987732;28;20045;-74
2022/10/27 01:47:12;;;;;;;19.10;11.40;;;22.10;66.50;;;;;;4991980;28;20030;-74
2022/10/27 01:49:41;;;;;;;17.73;11.75;;;22.10;66.80;;;;;;5008736;28;20480;-74
2022/10/27 01:52:44;;;;;;;16.05;10.98;;;22.10;66.50;;;;;;5008689;28;20365;-74
2022/10/27 01:55:42;;;;;;;17.55;10.85;;;22.10;66.60;;;;;;5012094;28;20033;-75
2022/10/27 01:58:43;;;;;;;17.25;10.98;;;22.10;66.70;;;;;;5012258;28;20049;-74
2022/10/27 02:01:43;;;;;;;16.27;11.45;;;22.10;66.70;;;;;;5012114;28;20059;-73
2022/10/27 02:04:35;;;;;;;17.02;11.10;;;22.10;66.90;;;;;;4972957;28;20431;-73
2022/10/27 02:07:11;;;;;;;19.10;11.27;;;22.10;66.70;;;;;;4973101;28;20388;-73
2022/10/27 02:09:45;;;;;;;19.92;10.77;;;22.10;66.70;;;;;;4972872;28;20453;-73
2022/10/27 02:12:35;;;;;;;18.05;10.57;;;22.10;66.90;;;;;;4972586;28;20035;-74
2022/10/27 02:15:05;;;;;;;16.30;10.45;;;22.10;66.90;;;;;;4969411;28;20117;-74
2022/10/27 02:17:38;;;;;;;15.98;10.57;;;22.10;66.90;;;;;;4992462;28;20037;-73
2022/10/27 02:20:09;;;;;;;17.35;10.80;;;22.10;66.80;;;;;;4990738;28;20445;-74
2022/10/27 02:22:37;;;;;;;16.60;10.68;;;22.10;66.90;;;;;;4991890;28;20395;-74
2022/10/27 02:25:03;;;;;;;19.17;10.35;;;22.10;66.90;;;;;;4992098;28;20030;-74
2022/10/27 02:27:37;;;;;;;14.75;9.82;;;22.10;67.10;;;;;;4990786;28;20519;-74
2022/10/27 02:30:05;;;;;;;17.75;9.90;;;22.10;66.90;;;;;;4992064;28;20037;-74
2022/10/27 02:32:32;;;;;;;18.92;10.82;;;22.10;67.20;;;;;;4990604;28;20037;-74
2022/10/27 02:34:59;;;;;;;14.05;9.32;;;22.10;66.80;;;;;;4990596;28;20105;-74
2022/10/27 02:37:31;;;;;;;14.07;9.63;;;22.20;67.10;;;;;;4991963;28;20041;-74
2022/10/27 02:39:57;;;;;;;14.95;9.82;;;22.20;67.00;;;;;;4991829;28;20026;-74
2022/10/27 02:42:23;;;;;;;15.52;10.02;;;22.10;67.10;;;;;;4990426;28;20029;-74
2022/10/27 02:44:49;;;;;;;17.02;10.65;;;22.10;67.10;;;;;;4994151;28;20511;-74
2022/10/27 02:47:15;;;;;;;14.68;9.57;;;22.10;67.30;;;;;;4993750;28;20066;-74
2022/10/27 02:49:40;;;;;;;16.58;10.60;;;22.10;67.30;;;;;;5004207;28;20027;-74
2022/10/27 02:52:06;;;;;;;14.18;9.18;;;22.10;67.50;;;;;;4996098;28;20042;-74
2022/10/27 02:54:32;;;;;;;17.15;10.13;;;22.10;67.20;;;;;;4995938;28;20065;-74
2022/10/27 02:56:58;;;;;;;16.13;9.88;;;22.10;67.30;;;;;;4995016;28;20126;-74
2022/10/27 02:59:24;;;;;;;16.35;9.75;;;22.10;67.50;;;;;;5000532;28;20098;-74
2022/10/27 03:01:50;;;;;;;16.55;9.82;;;22.10;67.30;;;;;;4998570;28;20133;-74
2022/10/27 03:04:16;;;;;;;17.13;9.85;;;22.10;67.40;;;;;;4983983;28;20041;-74
2022/10/27 03:06:42;;;;;;;15.50;9.90;;;22.10;67.30;;;;;;4999011;28;20032;-74
2022/10/27 03:09:08;;;;;;;13.85;9.38;;;22.10;67.20;;;;;;4997797;28;20503;-74
2022/10/27 03:11:33;;;;;;;19.25;9.43;;;22.10;67.20;;;;;;4996090;28;20495;-74
2022/10/27 03:13:59;;;;;;;14.00;9.18;;;22.10;67.00;;;;;;4997818;28;20034;-74
2022/10/27 03:16:25;;;;;;;16.40;9.52;;;22.10;67.10;;;;;;4999930;28;20022;-74
2022/10/27 03:18:50;;;;;;;15.02;9.57;;;22.10;67.30;;;;;;4999785;28;20030;-73
2022/10/27 03:21:16;;;;;;;13.20;8.43;;;22.10;67.50;;;;;;5000029;28;20035;-73
2022/10/27 03:23:42;;;;;;;12.25;8.38;;;22.10;67.40;;;;;;4997770;28;20030;-73
2022/10/27 03:26:09;;;;;;;16.67;9.13;;;22.10;67.40;;;;;;4997776;28;20399;-73
2022/10/27 03:28:35;;;;;;;16.13;9.50;;;22.10;67.40;;;;;;5000201;28;20037;-73
2022/10/27 03:31:05;;;;;;;13.63;9.20;;;22.10;67.40;;;;;;5001605;28;20030;-74
2022/10/27 03:33:31;;;;;;;13.57;9.10;;;22.10;67.40;;;;;;4997326;28;20045;-73
2022/10/27 03:35:58;;;;;;;19.50;8.85;;;22.10;67.80;;;;;;4998405;28;20109;-74
2022/10/27 03:38:24;;;;;;;13.50;8.75;;;22.10;67.70;;;;;;5001119;28;20026;-74
2022/10/27 03:40:50;;;;;;;16.00;9.30;;;22.10;67.40;;;;;;5000259;28;20079;-74
2022/10/27 03:43:16;;;;;;;14.55;9.20;;;22.10;67.60;;;;;;4996929;28;20025;-74
2022/10/27 03:45:42;;;;;;;12.95;8.88;;;22.10;67.70;;;;;;5000343;28;20029;-74
2022/10/27 03:48:11;;;;;;;13.73;9.25;;;22.10;67.80;;;;;;5000293;28;20041;-75
2022/10/27 03:50:37;;;;;;;14.77;9.10;;;22.10;67.80;;;;;;4996732;28;20030;-74
2022/10/27 03:53:03;;;;;;;12.93;8.45;;;22.10;67.70;;;;;;4997201;28;20030;-74
2022/10/27 03:55:31;;;;;;;16.20;9.20;;;22.10;67.90;;;;;;4985357;28;20038;-74
2022/10/27 03:57:57;;;;;;;13.63;8.60;;;22.10;67.80;;;;;;4998206;28;20030;-75
2022/10/27 04:00:23;;;;;;;11.80;8.13;;;22.10;67.70;;;;;;4997366;28;20031;-73
2022/10/27 04:02:53;;;;;;;13.73;8.00;;;22.10;67.50;;;;;;4999688;28;20033;-74
2022/10/27 04:05:19;;;;;;;;;;;22.10;67.60;;;;;;4996631;28;20045;-74
2022/10/27 04:07:46;;;;;;;14.63;8.40;;;22.10;67.80;;;;;;5002986;28;19916;-74
2022/10/27 04:10:12;;;;;;;15.40;8.35;;;22.10;67.70;;;;;;4997003;28;20038;-74
2022/10/27 04:12:37;;;;;;;14.45;8.70;;;22.10;67.70;;;;;;5014066;28;20026;-74
2022/10/27 04:15:04;;;;;;;14.52;8.18;;;22.10;68.10;;;;;;4994675;28;20054;-74
2022/10/27 04:17:30;;;;;;;13.88;8.60;;;22.10;67.70;;;;;;4973342;28;20034;-74
2022/10/27 04:19:56;;;;;;;13.93;8.65;;;22.10;67.70;;;;;;4970984;28;20392;-75
2022/10/27 04:22:22;;;;;;;11.95;7.50;;;22.10;67.90;;;;;;4995275;28;20030;-75
2022/10/27 04:24:47;;;;;;;14.27;8.00;;;22.10;67.80;;;;;;4996803;28;20549;-74
2022/10/27 04:27:13;;;;;;;13.10;7.78;;;22.10;67.60;;;;;;4996686;28;20077;-74
2022/10/27 04:29:39;;;;;;;14.60;8.05;;;22.10;67.80;;;;;;5000181;28;20426;-74
2022/10/27 04:32:05;;;;;;;13.07;8.32;;;22.10;67.90;;;;;;5000619;28;20081;-74
2022/10/27 04:34:30;;;;;;;13.27;7.85;;;22.10;67.90;;;;;;4991876;28;20033;-74
2022/10/27 04:36:56;;;;;;;14.55;8.50;;;22.10;67.80;;;;;;4999377;28;20021;-74
2022/10/27 04:39:22;;;;;;;12.65;8.35;;;22.10;67.70;;;;;;4998616;28;20117;-74
2022/10/27 04:41:48;;;;;;;13.70;7.72;;;22.10;67.80;;;;;;4995889;28;20038;-74
2022/10/27 04:44:13;;;;;;;14.05;7.93;;;22.10;67.90;;;;;;4995293;28;20030;-74
2022/10/27 04:46:39;;;;;;;15.27;7.47;;;22.10;68.10;;;;;;5004826;28;20034;-74
2022/10/27 04:49:05;;;;;;;14.88;7.88;;;22.10;68.10;;;;;;4997113;28;20031;-74
2022/10/27 04:51:31;;;;;;;14.13;7.82;;;22.10;68.10;;;;;;4995810;28;20022;-74
2022/10/27 04:53:56;;;;;;;14.68;8.60;;;22.10;68.00;;;;;;4994089;28;20069;-74
2022/10/27 04:56:22;;;;;;;13.48;7.85;;;22.10;67.90;;;;;;4998543;28;20018;-75
2022/10/27 04:58:48;;;;;;;13.45;7.32;;;22.10;68.00;;;;;;4995821;28;20023;-75
2022/10/27 05:01:14;;;;;;;12.57;7.88;;;22.10;68.20;;;;;;4993071;28;20079;-74
2022/10/27 05:03:40;;;;;;;13.25;7.32;;;22.10;68.10;;;;;;4995145;28;20029;-74
2022/10/27 05:06:06;;;;;;;12.32;7.60;;;22.10;67.90;;;;;;4991067;28;20026;-75
2022/10/27 05:08:32;;;;;;;12.45;7.32;;;22.10;68.00;;;;;;4992979;28;20476;-74
2022/10/27 05:10:58;;;;;;;12.55;7.82;;;22.10;67.80;;;;;;4999715;28;20118;-74
2022/10/27 05:13:24;;;;;;;14.38;8.10;;;22.10;67.70;;;;;;4996502;28;20499;-75
2022/10/27 05:15:50;;;;;;;13.40;7.40;;;22.10;67.80;;;;;;4994546;28;20109;-75
2022/10/27 05:18:15;;;;;;;11.40;7.30;;;22.10;68.10;;;;;;4995562;28;20023;-75
2022/10/27 05:20:41;;;;;;;21.88;7.93;;;22.10;68.10;;;;;;4995000;28;20107;-74
2022/10/27 05:23:07;;;;;;;13.93;7.50;;;22.10;67.80;;;;;;4997184;28;20025;-74
2022/10/27 05:25:33;;;;;;;11.23;7.30;;;22.10;67.80;;;;;;5002137;28;20026;-74
2022/10/27 05:28:06;;;;;;;13.18;7.72;;;22.10;67.60;;;;;;4998636;28;20105;-74
2022/10/27 05:30:32;;;;;;;12.45;7.18;;;22.10;67.80;;;;;;4989780;28;20377;-75
2022/10/27 05:32:58;;;;;;;13.40;7.85;;;22.10;68.20;;;;;;4981639;28;20041;-75
2022/10/27 05:35:24;;;;;;;12.65;7.70;;;22.10;67.70;;;;;;4987881;28;20153;-75
2022/10/27 05:37:50;;;;;;;13.70;7.32;;;22.10;67.60;;;;;;4993295;28;20041;-74
2022/10/27 05:40:15;;;;;;;13.85;7.10;;;22.10;67.70;;;;;;4993156;28;20014;-74
2022/10/27 05:42:54;;;;;;;13.52;6.95;;;22.10;67.60;;;;;;4981593;28;20089;-74
2022/10/27 05:45:22;;;;;;;16.77;7.60;;;22.10;67.90;;;;;;4984904;28;20105;-74
2022/10/27 05:47:55;;;;;;;11.77;7.03;;;22.10;68.60;;;;;;4991852;28;20062;-75
2022/10/27 05:50:21;;;;;;;15.15;7.50;;;22.10;67.60;;;;;;4992968;28;20057;-74
2022/10/27 05:52:46;;;;;;;13.60;6.88;;;22.10;67.60;;;;;;4985617;28;20058;-74
2022/10/27 05:55:12;;;;;;;15.45;7.03;;;22.10;67.90;;;;;;4985414;28;20117;-74
2022/10/27 05:57:38;;;;;;;15.05;7.28;;;22.20;68.50;;;;;;4976328;28;20499;-74
2022/10/27 06:00:04;;;;;;;13.10;7.07;;;22.20;68.30;;;;;;4980077;28;20023;-74
2022/10/27 06:02:30;;;;;;;16.80;7.88;;;22.20;68.20;;;;;;4986840;28;20492;-76
2022/10/27 06:04:56;;;;;;;15.07;6.97;;;22.20;68.80;;;;;;4992810;28;20030;-76
2022/10/27 06:07:21;;;;;;;13.82;7.70;;;22.20;68.50;;;;;;4997591;28;20083;-75
2022/10/27 06:09:47;;;;;;;13.38;8.07;;;22.20;68.80;;;;;;4997141;28;20034;-75
2022/10/27 06:12:13;;;;;;;15.52;8.43;;;22.30;69.60;;;;;;4993893;28;20026;-75
2022/10/27 06:14:39;;;;;;;18.17;8.80;;;22.30;70.30;;;;;;4998646;28;20026;-75
2022/10/27 06:17:04;;;;;;;24.88;9.40;;;22.30;70.00;;;;;;4999457;28;20030;-75
2022/10/27 06:19:30;;;;;;;15.02;8.43;;;22.40;70.30;;;;;;4990070;28;20032;-75
2022/10/27 06:21:56;;;;;;;15.40;8.90;;;22.30;69.80;;;;;;4996109;28;20511;-75
2022/10/27 06:24:21;;;;;;;34.70;8.50;;;22.30;70.40;;;;;;4994302;28;20096;-77
2022/10/27 06:26:47;;;;;;;16.70;8.25;;;22.40;70.00;;;;;;4987032;28;20034;-77
2022/10/27 06:29:13;;;;;;;20.00;8.35;;;22.40;69.60;;;;;;4980334;28;20023;-76
2022/10/27 06:31:41;;;;;;;14.15;7.40;;;22.30;69.90;;;;;;4985702;28;20026;-75
2022/10/27 06:34:07;;;;;;;16.23;7.30;;;22.30;70.00;;;;;;4985468;28;20103;-75
2022/10/27 06:36:33;;;;;;;16.77;7.47;;;22.30;70.00;;;;;;4991357;28;20541;-75
2022/10/27 06:38:58;;;;;;;20.88;7.78;;;22.30;69.70;;;;;;4983135;28;20484;-75
2022/10/27 06:41:25;;;;;;;16.10;7.43;;;22.20;69.50;;;;;;4987461;28;20022;-75
2022/10/27 06:43:51;;;;;;;15.77;7.93;;;22.20;69.50;;;;;;4996771;28;20026;-75
2022/10/27 06:46:17;;;;;;;13.18;6.85;;;22.20;69.60;;;;;;4994919;28;20453;-75
2022/10/27 06:48:42;;;;;;;14.20;7.13;;;22.20;69.40;;;;;;4993296;28;20034;-75
2022/10/27 06:51:08;;;;;;;18.13;6.55;;;22.20;67.60;;;;;;4994168;28;20149;-76
2022/10/27 06:53:34;;;;;;;14.68;5.32;;;21.90;62.50;;;;;;5000053;28;20033;-82
2022/10/27 06:56:00;;;;;;;15.20;5.88;;;21.60;63.40;;;;;;4980353;28;20038;-75
2022/10/27 06:58:25;;;;;;;16.50;6.40;;;21.50;63.20;;;;;;5000534;28;20026;-75
2022/10/27 07:00:51;;;;;;;22.77;5.78;;;21.60;62.90;;;;;;4995952;28;20026;-74
2022/10/27 07:03:17;;;;;;;21.75;5.43;;;21.70;63.30;;;;;;4999860;28;20387;-73
2022/10/27 07:05:43;;;;;;;17.85;5.32;;;21.70;63.60;;;;;;4997110;28;20030;-73
2022/10/27 07:08:08;;;;;;;10.82;4.95;;;21.80;63.90;;;;;;5025282;22;20072;-74
2022/10/27 07:10:34;;;;;;;13.23;4.93;;;21.80;64.20;;;;;;5072310;28;20029;-74
2022/10/27 07:13:01;;;;;;;14.82;4.80;;;21.90;64.40;;;;;;5081176;28;20107;-74
2022/10/27 07:15:31;;;;;;;13.73;5.00;;;21.90;65.00;;;;;;5056059;28;20470;-75
2022/10/27 07:18:05;;;;;;;16.70;4.45;;;21.90;66.00;;;;;;5060592;28;20034;-74
2022/10/27 07:20:33;;;;;;;11.10;4.38;;;22.00;65.50;;;;;;5029934;28;20029;-75
2022/10/27 07:23:00;;;;;;;13.75;5.20;;;22.00;65.40;;;;;;5082909;28;20052;-75
2022/10/27 07:25:27;;;;;;;11.52;4.28;;;22.00;65.40;;;;;;5080078;28;20029;-74
2022/10/27 07:27:53;;;;;;;9.15;4.32;;;22.00;65.40;;;;;;5076263;28;20025;-74
2022/10/27 07:30:21;;;;;;;10.73;4.50;;;22.00;65.50;;;;;;5047889;28;20048;-74
2022/10/27 07:32:47;;;;;;;8.25;4.30;;;22.00;65.70;;;;;;5089205;28;20029;-74
2022/10/27 07:35:14;;;;;;;14.00;4.90;;;22.00;66.60;;;;;;5080446;28;20126;-74
2022/10/27 07:37:44;;;;;;;10.50;4.28;;;22.00;67.10;;;;;;5068802;28;20028;-74
2022/10/27 07:40:11;;;;;;;12.43;4.28;;;22.00;66.30;;;;;;5067280;28;20048;-73
2022/10/27 07:42:44;;;;;;;11.27;4.43;;;22.00;66.30;;;;;;5080851;28;20032;-74
2022/10/27 07:45:12;;;;;;;10.80;4.05;;;22.00;66.70;;;;;;5072468;28;20121;-74
2022/10/27 07:47:41;;;;;;;12.02;4.45;;;22.00;66.60;;;;;;5093223;28;20024;-74
2022/10/27 07:50:07;;;;;;;19.17;4.88;;;22.00;66.80;;;;;;5053925;28;20166;-73
2022/10/27 07:52:40;;;;;;;12.50;4.68;;;22.10;67.30;;;;;;5065546;28;20032;-74
2022/10/27 07:55:07;;;;;;;15.05;4.50;;;22.10;67.20;;;;;;5071237;28;20035;-74
2022/10/27 07:57:32;;;;;;;12.80;4.57;;;22.20;67.00;;;;;;5084283;28;20020;-74
2022/10/27 07:59:58;;;;;;;13.05;4.32;;;22.10;67.00;;;;;;5091199;28;20478;-74
2022/10/27 08:02:24;;;;;;;12.65;4.32;;;22.20;67.10;;;;;;5082506;28;20534;-75
2022/10/27 08:04:50;;;;;;;12.75;4.07;;;22.30;67.40;;;;;;5074951;28;20501;-73
2022/10/27 08:07:15;;;;;;;12.38;4.32;;;22.20;67.70;;;;;;5080985;28;20386;-76
2022/10/27 08:09:42;;;;;;;21.80;5.63;;;22.30;67.70;;;;;;5092857;28;20044;-72
2022/10/27 08:12:08;;;;;;;10.45;4.30;;;22.30;67.40;;;;;;5081303;28;20024;-73
2022/10/27 08:14:34;;;;;;;14.60;4.03;;;22.20;67.70;;;;;;5092059;28;20081;-73
2022/10/27 08:17:00;;;;;;;14.05;4.82;;;22.10;65.60;;;;;;5082380;28;20393;-73
2022/10/27 08:19:25;;;;;;;16.23;4.65;;;22.00;64.50;;;;;;5060510;28;20536;-74
2022/10/27 08:21:51;;;;;;;14.88;4.45;;;22.00;64.10;;;;;;5074086;28;20035;-77
2022/10/27 08:24:17;;;;;;;20.85;5.18;;;21.90;63.30;;;;;;5066323;28;20039;-76
2022/10/27 08:26:43;;;;;;;19.70;5.82;;;21.90;62.90;;;;;;5082878;28;20036;-75
2022/10/27 08:29:08;;;;;;;20.73;8.00;;;22.00;64.10;;;;;;5075193;28;20490;-75
2022/10/27 08:31:34;;;;;;;20.20;6.50;;;22.00;64.00;;;;;;5062673;28;20508;-76
2022/10/27 08:34:00;;;;;;;19.55;7.28;;;22.00;64.20;;;;;;5037568;28;20036;-76
2022/10/27 08:36:25;;;;;;;13.15;5.72;;;22.00;63.80;;;;;;5072241;28;20024;-76
2022/10/27 08:38:51;;;;;;;10.48;5.28;;;22.00;64.50;;;;;;5072062;28;20028;-76
2022/10/27 08:41:34;;;;;;;12.90;5.50;;;22.00;65.40;;;;;;5054347;28;20039;-76
2022/10/27 08:44:25;;;;;;;15.88;5.18;;;22.00;65.80;;;;;;5072196;28;20036;-76
2022/10/27 08:46:57;;;;;;;14.35;4.50;;;22.00;66.30;;;;;;5072084;28;20398;-76
2022/10/27 08:49:32;;;;;;;17.75;4.65;;;22.00;66.20;;;;;;5072235;28;20077;-76
2022/10/27 08:52:11;;;;;;;10.48;5.07;;;22.10;66.40;;;;;;5071557;28;20032;-76
2022/10/27 08:54:39;;;;;;;7.83;4.47;;;22.10;66.40;;;;;;5071883;28;20025;-76
2022/10/27 08:57:05;;;;;;;8.73;4.55;;;22.10;66.30;;;;;;5071914;28;20074;-76
2022/10/27 08:59:33;;;;;;;10.07;4.47;;;22.10;67.00;;;;;;5071780;28;20029;-76
2022/10/27 09:02:39;;;;;;;13.45;4.57;;;22.10;66.30;;;;;;5071302;28;20545;-76
2022/10/27 09:05:28;;;;;;;9.50;4.13;;;22.10;66.10;;;;;;5071737;28;20123;-76
2022/10/27 09:08:22;;;;;;;8.65;4.50;;;22.10;66.50;;;;;;5025866;28;20036;-76
2022/10/27 09:11:13;;;;;;;10.90;4.35;;;22.10;66.40;;;;;;5071511;28;20111;-75
2022/10/27 09:14:05;;;;;;;10.57;4.40;;;22.10;66.70;;;;;;5071276;28;20097;-76
2022/10/27 09:17:00;;;;;;;9.23;4.43;;;22.10;66.50;;;;;;5071621;28;20527;-76
2022/10/27 09:19:34;;;;;;;10.95;4.53;;;22.10;66.70;;;;;;5071481;28;20024;-75
2022/10/27 09:22:03;;;;;;;7.85;4.13;;;22.10;66.70;;;;;;5071144;28;20038;-76
2022/10/27 09:24:33;;;;;;;7.82;3.72;;;22.10;66.90;;;;;;5071770;28;20470;-75
2022/10/27 09:27:01;;;;;;;11.18;4.63;;;22.10;67.10;;;;;;5071660;28;20020;-75
2022/10/27 09:29:28;;;;;;;9.23;4.00;;;22.10;66.90;;;;;;5053381;28;20029;-76
2022/10/27 09:32:06;;;;;;;10.93;4.00;;;22.10;67.30;;;;;;5070999;28;20112;-76
2022/10/27 09:34:50;;;;;;;8.73;3.80;;;22.10;67.40;;;;;;5036843;28;20119;-76
2022/10/27 09:37:18;;;;;;;8.43;3.90;;;22.10;67.00;;;;;;5054797;28;20086;-76
2022/10/27 09:39:52;;;;;;;10.27;4.13;;;22.10;67.10;;;;;;5053373;28;20032;-76
2022/10/27 09:42:19;;;;;;;7.50;4.10;;;22.10;67.00;;;;;;5036794;28;20028;-76
2022/10/27 09:45:19;;;;;;;8.38;3.88;;;22.10;67.10;;;;;;5053433;28;20039;-75
2022/10/27 09:47:51;;;;;;;7.90;3.85;;;22.10;67.50;;;;;;5071264;28;20525;-76
2022/10/27 09:50:24;;;;;;;7.55;3.95;;;22.10;67.50;;;;;;5053357;28;20040;-75
2022/10/27 09:52:51;;;;;;;10.02;3.92;;;22.10;67.60;;;;;;5036536;28;20036;-77
2022/10/27 09:55:18;;;;;;;6.57;3.80;;;22.10;68.00;;;;;;5071193;28;20079;-77
2022/10/27 09:57:47;;;;;;;7.20;4.13;;;22.10;67.70;;;;;;5071037;28;20034;-76
2022/10/27 10:00:16;;;;;;;6.93;3.35;;;22.10;67.30;;;;;;5053210;28;20035;-76
2022/10/27 10:03:01;;;;;;;7.85;3.83;;;22.10;67.60;;;;;;5052919;28;20032;-77
2022/10/27 10:05:31;;;;;;;7.47;3.97;;;22.10;67.50;;;;;;5072784;28;20087;-76
2022/10/27 10:08:11;;;;;;;7.30;3.55;;;22.10;67.50;;;;;;5036630;28;20032;-76
2022/10/27 10:10:38;;;;;;;7.20;3.83;;;22.10;67.50;;;;;;5053150;28;20032;-76
2022/10/27 10:13:05;;;;;;;7.32;3.85;;;22.10;67.70;;;;;;5052797;28;20111;-77
2022/10/27 10:15:41;;;;;;;6.75;3.92;;;22.10;67.50;;;;;;5039972;28;20405;-76
2022/10/27 10:18:25;;;;;;;6.82;3.65;;;22.20;67.80;;;;;;5057405;28;20029;-77
2022/10/27 10:21:03;;;;;;;7.13;3.60;;;22.20;68.00;;;;;;5075003;28;20028;-77
2022/10/27 10:23:33;;;;;;;9.32;4.07;;;22.20;68.20;;;;;;5040245;28;20450;-76
2022/10/27 10:25:59;;;;;;;;;;;22.20;68.00;;;;;;5041199;28;20044;-77
2022/10/27 10:28:36;;;;;;;8.48;4.07;;;22.20;68.20;;;;;;5056474;28;19908;-76
2022/10/27 10:31:10;;;;;;;7.88;3.80;;;22.20;68.30;;;;;;5034183;28;20040;-76
2022/10/27 10:33:40;;;;;;;6.85;3.42;;;22.20;68.60;;;;;;5073447;28;20047;-76
2022/10/27 10:36:27;;;;;;;6.55;4.00;;;22.20;68.30;;;;;;5073182;28;20025;-76
2022/10/27 10:38:55;;;;;;;6.60;3.50;;;22.20;68.50;;;;;;5057061;28;20444;-76
2022/10/27 10:41:22;;;;;;;5.70;3.90;;;22.20;68.20;;;;;;5090364;28;20119;-76
2022/10/27 10:44:10;;;;;;;7.05;3.67;;;22.10;68.30;;;;;;5074114;28;20032;-76
2022/10/27 10:46:40;;;;;;;7.63;3.90;;;22.20;68.30;;;;;;5090393;28;20025;-76
2022/10/27 10:49:24;;;;;;;6.95;3.70;;;22.20;68.40;;;;;;5093428;28;20035;-77
2022/10/27 10:51:58;;;;;;;7.45;3.63;;;22.20;68.50;;;;;;5076612;28;20024;-76
2022/10/27 10:54:32;;;;;;;5.55;3.30;;;22.20;68.90;;;;;;5094920;28;20034;-79
2022/10/27 10:56:58;;;;;;;6.60;3.78;;;22.20;68.80;;;;;;5060459;28;20036;-77
2022/10/27 10:59:30;;;;;;;6.97;3.38;;;22.20;68.90;;;;;;5076770;28;20042;-78
2022/10/27 11:02:15;;;;;;;4.78;3.25;;;22.20;68.20;;;;;;5076645;28;20024;-78
2022/10/27 11:04:43;;;;;;;6.65;3.47;;;22.20;68.30;;;;;;5076959;28;20039;-77
2022/10/27 11:07:26;;;;;;;6.38;3.33;;;22.20;68.80;;;;;;5076983;28;20031;-76
2022/10/27 11:10:16;;;;;;;6.72;3.42;;;22.20;68.70;;;;;;5076228;28;20124;-77
2022/10/27 11:12:57;;;;;;;9.20;3.90;;;22.20;69.10;;;;;;5076098;28;20111;-76
2022/10/27 11:15:40;;;;;;;5.80;3.40;;;22.20;68.90;;;;;;5076325;28;20077;-76
2022/10/27 11:18:18;;;;;;;7.07;3.70;;;22.20;69.00;;;;;;5094422;28;20043;-77
2022/10/27 11:20:47;;;;;;;4.55;3.15;;;22.20;69.60;;;;;;5076483;28;20511;-77
2022/10/27 11:23:19;;;;;;;4.68;3.20;;;22.20;68.80;;;;;;5094090;28;20032;-77
2022/10/27 11:25:46;;;;;;;6.38;3.50;;;22.30;69.20;;;;;;5093503;28;20051;-78
2022/10/27 11:28:21;;;;;;;6.55;3.45;;;22.20;69.40;;;;;;5094565;28;20024;-75
2022/10/27 11:31:21;;;;;;;6.00;3.15;;;22.20;69.10;;;;;;5076883;28;20024;-77
2022/10/27 11:34:00;;;;;;;;;;;22.20;69.10;;;;;;5076769;28;20032;-77
2022/10/27 11:36:37;;;;;;;6.10;3.30;;;22.20;69.30;;;;;;5094173;28;19912;-76
2022/10/27 11:39:09;;;;;;;6.15;3.40;;;22.20;69.30;;;;;;5093644;28;20070;-75
2022/10/27 11:41:47;;;;;;;6.63;3.13;;;22.20;69.00;;;;;;5075457;28;20379;-75
2022/10/27 11:44:25;;;;;;;6.43;3.60;;;22.20;69.30;;;;;;5058869;28;20039;-75
2022/10/27 11:47:17;;;;;;;6.85;3.47;;;22.20;69.40;;;;;;5093415;28;20032;-75
2022/10/27 11:49:54;;;;;;;4.95;3.10;;;22.20;69.40;;;;;;5069531;28;20131;-75
2022/10/27 11:52:35;;;;;;;5.32;3.25;;;22.20;69.30;;;;;;5054973;28;20068;-75
2022/10/27 11:55:04;;;;;;;4.78;3.10;;;22.20;69.70;;;;;;5072962;28;20029;-76
2022/10/27 11:57:58;;;;;;;5.40;3.08;;;22.20;69.50;;;;;;5055406;28;20025;-75
2022/10/27 12:00:26;;;;;;;5.55;2.92;;;22.20;69.80;;;;;;5071850;28;20036;-75
2022/10/27 12:03:29;;;;;;;5.65;3.13;;;22.20;69.70;;;;;;5072530;28;20108;-75
2022/10/27 12:05:58;;;;;;;5.53;3.20;;;22.20;69.50;;;;;;5072631;28;20048;-75
2022/10/27 12:08:42;;;;;;;5.20;3.28;;;22.20;69.70;;;;;;5072963;28;20028;-75
2022/10/27 12:11:16;;;;;;;5.03;3.00;;;22.20;69.50;;;;;;5072698;28;20032;-75
2022/10/27 12:13:42;;;;;;;5.25;3.38;;;22.20;69.70;;;;;;5054488;28;20119;-76
2022/10/27 12:16:29;;;;;;;6.47;3.08;;;22.20;69.60;;;;;;5054843;28;20104;-76
2022/10/27 12:19:14;;;;;;;4.93;3.10;;;22.20;69.80;;;;;;5072556;28;20496;-75
2022/10/27 12:21:56;;;;;;;5.32;3.20;;;22.20;69.60;;;;;;5054355;28;20451;-76
2022/10/27 12:24:55;;;;;;;4.88;3.15;;;22.20;69.40;;;;;;5072649;28;20401;-76
2022/10/27 12:27:30;;;;;;;6.40;3.27;;;22.20;69.60;;;;;;5034444;28;20064;-76
2022/10/27 12:30:02;;;;;;;5.53;3.13;;;22.20;69.80;;;;;;5072393;28;20036;-75
2022/10/27 12:32:40;;;;;;;5.75;3.25;;;22.20;69.60;;;;;;5072123;28;20024;-75
2022/10/27 12:35:36;;;;;;;6.88;3.13;;;22.20;69.70;;;;;;5072208;28;20051;-75
2022/10/27 12:38:05;;;;;;;5.53;3.10;;;22.20;69.80;;;;;;5071697;28;20028;-75
2022/10/27 12:40:40;;;;;;;5.55;3.30;;;22.20;69.60;;;;;;5072089;28;20091;-75
2022/10/27 12:43:27;;;;;;;6.18;3.28;;;22.20;69.50;;;;;;5071807;28;20031;-75
2022/10/27 12:46:17;;;;;;;5.85;3.20;;;22.20;69.50;;;;;;5072002;28;20051;-76
2022/10/27 12:49:12;;;;;;;4.80;2.70;;;22.30;69.50;;;;;;5054213;28;20025;-76
2022/10/27 12:51:37;;;;;;;5.78;3.10;;;22.20;69.50;;;;;;5053439;28;20036;-75
2022/10/27 12:54:21;;;;;;;5.72;2.97;;;22.20;69.80;;;;;;5071408;28;20032;-75
2022/10/27 12:57:09;;;;;;;5.60;2.97;;;22.30;69.70;;;;;;5071771;28;20028;-74
2022/10/27 13:00:07;;;;;;;4.82;2.80;;;22.20;69.40;;;;;;5071759;28;20028;-75